sensor_id;sensor_type;location;lat;lon;timestamp;P1;durP1;ratioP1;P2;durP2;ratioP2
35907;SDS011;22003;50.320;8.054;2023-04-10T04:01:16;14.38;;;8.45;;
35907;SDS011;22003;50.320;8.054;2023-04-10T04:03:42;17.08;;;9.05;;
35907;SDS011;22003;50.320;8.054;2023-04-10T04:06:07;17.48;;;8.77;;
35907;SDS011;22003;50.320;8.054;2023-04-10T04:08:32;15.88;;;8.55;;
35907;SDS011;22003;50.320;8.054;2023-04-10T04:11:00;16.13;;;8.73;;
35907;SDS011;22003;50.320;8.054;2023-04-10T04:13:25;14.27;;;7.82;;
35907;SDS011;22003;50.320;8.054;2023-04-10T04:15:51;16.35;;;8.60;;
35907;SDS011;22003;50.320;8.054;2023-04-10T04:18:16;23.27;;;11.20;;
35907;SDS011;22003;50.320;8.054;2023-04-10T04:20:41;33.80;;;16.48;;
35907;SDS011;22003;50.320;8.054;2023-04-10T04:23:06;25.50;;;12.00;;
35907;SDS011;22003;50.320;8.054;2023-04-10T04:25:32;20.65;;;9.73;;
35907;SDS011;22003;50.320;8.054;2023-04-10T04:27:57;19.73;;;9.80;;
35907;SDS011;22003;50.320;8.054;2023-04-10T04:30:22;23.38;;;12.95;;
35907;SDS011;22003;50.320;8.054;2023-04-10T04:32:47;23.50;;;12.07;;
35907;SDS011;22003;50.320;8.054;2023-04-10T04:35:13;22.50;;;11.80;;
35907;SDS011;22003;50.320;8.054;2023-04-10T04:37:38;23.40;;;11.68;;
35907;SDS011;22003;50.320;8.054;2023-04-10T04:40:03;20.70;;;10.65;;
35907;SDS011;22003;50.320;8.054;2023-04-10T04:42:29;33.03;;;14.35;;
35907;SDS011;22003;50.320;8.054;2023-04-10T04:44:54;22.33;;;11.70;;
35907;SDS011;22003;50.320;8.054;2023-04-10T04:47:20;20.52;;;10.20;;
35907;SDS011;22003;50.320;8.054;2023-04-10T04:49:45;20.15;;;10.40;;
35907;SDS011;22003;50.320;8.054;2023-04-10T04:52:10;26.98;;;11.77;;
35907;SDS011;22003;50.320;8.054;2023-04-10T04:54:36;20.88;;;11.20;;
35907;SDS011;22003;50.320;8.054;2023-04-10T04:57:01;23.30;;;10.48;;
35907;SDS011;22003;50.320;8.054;2023-04-10T04:59:26;15.18;;;8.45;;
35907;SDS011;22003;50.320;8.054;2023-04-10T05:01:51;16.80;;;8.98;;
35907;SDS011;22003;50.320;8.054;2023-04-10T05:04:17;14.50;;;9.00;;
35907;SDS011;22003;50.320;8.054;2023-04-10T05:06:42;19.60;;;9.13;;
35907;SDS011;22003;50.320;8.054;2023-04-10T05:09:07;19.88;;;10.05;;
35907;SDS011;22003;50.320;8.054;2023-04-10T05:11:32;22.08;;;10.10;;
35907;SDS011;22003;50.320;8.054;2023-04-10T05:13:58;20.27;;;10.73;;
35907;SDS011;22003;50.320;8.054;2023-04-10T05:16:24;18.50;;;10.13;;
35907;SDS011;22003;50.320;8.054;2023-04-10T05:18:49;18.90;;;10.00;;
35907;SDS011;22003;50.320;8.054;2023-04-10T05:21:14;32.42;;;17.00;;
35907;SDS011;22003;50.320;8.054;2023-04-10T05:23:40;23.15;;;12.77;;
35907;SDS011;22003;50.320;8.054;2023-04-10T05:26:05;29.40;;;14.30;;
35907;SDS011;22003;50.320;8.054;2023-04-10T05:28:30;24.50;;;10.90;;
35907;SDS011;22003;50.320;8.054;2023-04-10T05:30:56;19.65;;;9.80;;
35907;SDS011;22003;50.320;8.054;2023-04-10T05:33:21;16.85;;;9.77;;
35907;SDS011;22003;50.320;8.054;2023-04-10T05:35:46;19.85;;;10.02;;
35907;SDS011;22003;50.320;8.054;2023-04-10T05:38:11;16.63;;;8.75;;
35907;SDS011;22003;50.320;8.054;2023-04-10T05:40:36;13.88;;;8.32;;
35907;SDS011;22003;50.320;8.054;2023-04-10T05:43:02;14.13;;;7.72;;
35907;SDS011;22003;50.320;8.054;2023-04-10T05:45:27;16.00;;;9.38;;
35907;SDS011;22003;50.320;8.054;2023-04-10T05:47:53;17.20;;;10.25;;
35907;SDS011;22003;50.320;8.054;2023-04-10T05:50:18;18.42;;;9.82;;
35907;SDS011;22003;50.320;8.054;2023-04-10T05:52:43;19.70;;;9.73;;
35907;SDS011;22003;50.320;8.054;2023-04-10T05:55:10;16.33;;;10.18;;
35907;SDS011;22003;50.320;8.054;2023-04-10T05:57:35;16.77;;;8.70;;
35907;SDS011;22003;50.320;8.054;2023-04-10T06:00:01;15.10;;;8.68;;
35907;SDS011;22003;50.320;8.054;2023-04-10T06:02:26;17.17;;;10.02;;
35907;SDS011;22003;50.320;8.054;2023-04-10T06:04:51;15.55;;;9.52;;
35907;SDS011;22003;50.320;8.054;2023-04-10T06:07:17;15.93;;;8.95;;
35907;SDS011;22003;50.320;8.054;2023-04-10T06:09:42;16.50;;;9.55;;
35907;SDS011;22003;50.320;8.054;2023-04-10T06:12:07;18.13;;;9.23;;
35907;SDS011;22003;50.320;8.054;2023-04-10T06:14:33;14.70;;;8.05;;
35907;SDS011;22003;50.320;8.054;2023-04-10T06:16:59;17.35;;;9.13;;
35907;SDS011;22003;50.320;8.054;2023-04-10T06:19:24;14.63;;;8.93;;
35907;SDS011;22003;50.320;8.054;2023-04-10T06:21:49;15.55;;;9.20;;
35907;SDS011;22003;50.320;8.054;2023-04-10T06:24:15;13.55;;;7.53;;
35907;SDS011;22003;50.320;8.054;2023-04-10T06:26:40;20.55;;;8.63;;
35907;SDS011;22003;50.320;8.054;2023-04-10T06:29:05;16.23;;;9.20;;
35907;SDS011;22003;50.320;8.054;2023-04-10T06:31:33;16.90;;;9.30;;
35907;SDS011;22003;50.320;8.054;2023-04-10T06:33:58;17.40;;;9.18;;
35907;SDS011;22003;50.320;8.054;2023-04-10T06:36:24;14.05;;;8.73;;
35907;SDS011;22003;50.320;8.054;2023-04-10T06:38:51;15.03;;;8.70;;
35907;SDS011;22003;50.320;8.054;2023-04-10T06:41:16;13.80;;;8.27;;
35907;SDS011;22003;50.320;8.054;2023-04-10T06:43:41;14.38;;;8.82;;
35907;SDS011;22003;50.320;8.054;2023-04-10T06:46:06;14.50;;;8.85;;
35907;SDS011;22003;50.320;8.054;2023-04-10T06:48:32;13.90;;;8.40;;
35907;SDS011;22003;50.320;8.054;2023-04-10T06:50:57;13.13;;;8.35;;
35907;SDS011;22003;50.320;8.054;2023-04-10T06:53:24;15.43;;;8.82;;
35907;SDS011;22003;50.320;8.054;2023-04-10T06:55:50;15.90;;;8.85;;
35907;SDS011;22003;50.320;8.054;2023-04-10T06:58:15;14.88;;;8.95;;
35907;SDS011;22003;50.320;8.054;2023-04-10T07:00:41;15.00;;;9.02;;
35907;SDS011;22003;50.320;8.054;2023-04-10T07:03:06;16.55;;;9.23;;
35907;SDS011;22003;50.320;8.054;2023-04-10T07:05:32;14.90;;;8.75;;
35907;SDS011;22003;50.320;8.054;2023-04-10T07:07:57;13.85;;;8.50;;
35907;SDS011;22003;50.320;8.054;2023-04-10T07:10:22;15.98;;;9.40;;
35907;SDS011;22003;50.320;8.054;2023-04-10T07:12:47;19.38;;;11.80;;
35907;SDS011;22003;50.320;8.054;2023-04-10T07:15:13;21.75;;;13.60;;
35907;SDS011;22003;50.320;8.054;2023-04-10T07:17:38;23.23;;;11.70;;
35907;SDS011;22003;50.320;8.054;2023-04-10T07:20:03;20.35;;;10.73;;
35907;SDS011;22003;50.320;8.054;2023-04-10T07:22:29;17.27;;;10.13;;
35907;SDS011;22003;50.320;8.054;2023-04-10T07:24:55;17.42;;;11.30;;
35907;SDS011;22003;50.320;8.054;2023-04-10T07:27:21;19.50;;;10.73;;
35907;SDS011;22003;50.320;8.054;2023-04-10T07:29:47;17.20;;;10.38;;
35907;SDS011;22003;50.320;8.054;2023-04-10T07:32:12;16.55;;;10.05;;
35907;SDS011;22003;50.320;8.054;2023-04-10T07:34:37;20.23;;;11.73;;
35907;SDS011;22003;50.320;8.054;2023-04-10T07:37:02;19.75;;;11.85;;
35907;SDS011;22003;50.320;8.054;2023-04-10T07:39:28;18.77;;;10.70;;
35907;SDS011;22003;50.320;8.054;2023-04-10T07:41:53;18.23;;;10.93;;
35907;SDS011;22003;50.320;8.054;2023-04-10T07:44:19;17.83;;;11.13;;
35907;SDS011;22003;50.320;8.054;2023-04-10T07:46:44;18.00;;;10.82;;
35907;SDS011;22003;50.320;8.054;2023-04-10T07:49:09;18.25;;;10.77;;
35907;SDS011;22003;50.320;8.054;2023-04-10T07:51:36;14.40;;;8.93;;
35907;SDS011;22003;50.320;8.054;2023-04-10T07:54:02;16.83;;;11.02;;
35907;SDS011;22003;50.320;8.054;2023-04-10T07:56:28;15.13;;;9.50;;
35907;SDS011;22003;50.320;8.054;2023-04-10T07:58:55;17.33;;;9.70;;
35907;SDS011;22003;50.320;8.054;2023-04-10T08:01:22;16.90;;;9.27;;
35907;SDS011;22003;50.320;8.054;2023-04-10T08:03:48;15.68;;;9.70;;
35907;SDS011;22003;50.320;8.054;2023-04-10T08:06:13;16.23;;;9.32;;
35907;SDS011;22003;50.320;8.054;2023-04-10T08:08:39;15.27;;;9.70;;
35907;SDS011;22003;50.320;8.054;2023-04-10T08:11:27;17.17;;;9.45;;
35907;SDS011;22003;50.320;8.054;2023-04-10T08:13:52;13.52;;;8.63;;
35907;SDS011;22003;50.320;8.054;2023-04-10T08:16:22;14.98;;;8.88;;
35907;SDS011;22003;50.320;8.054;2023-04-10T08:18:49;12.98;;;8.40;;
35907;SDS011;22003;50.320;8.054;2023-04-10T08:21:14;13.75;;;8.55;;
35907;SDS011;22003;50.320;8.054;2023-04-10T08:23:39;12.10;;;7.72;;
35907;SDS011;22003;50.320;8.054;2023-04-10T08:26:05;11.65;;;6.75;;
35907;SDS011;22003;50.320;8.054;2023-04-10T08:28:30;15.27;;;7.68;;
35907;SDS011;22003;50.320;8.054;2023-04-10T08:30:56;9.05;;;5.82;;
35907;SDS011;22003;50.320;8.054;2023-04-10T08:33:21;10.23;;;6.47;;
35907;SDS011;22003;50.320;8.054;2023-04-10T08:35:47;9.15;;;5.13;;
35907;SDS011;22003;50.320;8.054;2023-04-10T08:38:13;9.68;;;4.65;;
35907;SDS011;22003;50.320;8.054;2023-04-10T08:40:38;6.68;;;4.53;;
35907;SDS011;22003;50.320;8.054;2023-04-10T08:43:03;8.82;;;5.22;;
35907;SDS011;22003;50.320;8.054;2023-04-10T08:45:29;8.95;;;5.40;;
35907;SDS011;22003;50.320;8.054;2023-04-10T08:47:54;7.95;;;5.00;;
35907;SDS011;22003;50.320;8.054;2023-04-10T08:50:26;9.75;;;5.47;;
35907;SDS011;22003;50.320;8.054;2023-04-10T08:52:55;7.63;;;5.45;;
35907;SDS011;22003;50.320;8.054;2023-04-10T08:55:24;8.13;;;5.45;;
35907;SDS011;22003;50.320;8.054;2023-04-10T08:57:49;6.82;;;4.88;;
35907;SDS011;22003;50.320;8.054;2023-04-10T09:00:16;6.53;;;4.85;;
35907;SDS011;22003;50.320;8.054;2023-04-10T09:02:42;8.15;;;4.80;;
35907;SDS011;22003;50.320;8.054;2023-04-10T09:05:09;7.07;;;5.00;;
35907;SDS011;22003;50.320;8.054;2023-04-10T09:07:36;7.30;;;4.80;;
35907;SDS011;22003;50.320;8.054;2023-04-10T09:10:01;6.82;;;4.50;;
35907;SDS011;22003;50.320;8.054;2023-04-10T09:12:27;7.22;;;4.95;;
35907;SDS011;22003;50.320;8.054;2023-04-10T09:14:53;6.78;;;4.65;;
35907;SDS011;22003;50.320;8.054;2023-04-10T09:17:23;5.35;;;3.72;;
35907;SDS011;22003;50.320;8.054;2023-04-10T09:19:50;5.65;;;4.53;;
35907;SDS011;22003;50.320;8.054;2023-04-10T09:22:17;6.28;;;5.03;;
35907;SDS011;22003;50.320;8.054;2023-04-10T09:24:43;6.43;;;4.13;;
35907;SDS011;22003;50.320;8.054;2023-04-10T09:27:11;10.73;;;5.00;;
35907;SDS011;22003;50.320;8.054;2023-04-10T09:29:52;7.15;;;4.53;;
35907;SDS011;22003;50.320;8.054;2023-04-10T09:32:34;4.93;;;3.67;;
35907;SDS011;22003;50.320;8.054;2023-04-10T09:35:01;5.28;;;4.22;;
35907;SDS011;22003;50.320;8.054;2023-04-10T09:37:32;6.82;;;4.03;;
35907;SDS011;22003;50.320;8.054;2023-04-10T09:39:58;8.32;;;4.43;;
35907;SDS011;22003;50.320;8.054;2023-04-10T09:42:33;5.03;;;3.95;;
35907;SDS011;22003;50.320;8.054;2023-04-10T09:45:01;6.38;;;4.25;;
35907;SDS011;22003;50.320;8.054;2023-04-10T09:47:27;6.78;;;4.35;;
35907;SDS011;22003;50.320;8.054;2023-04-10T09:49:53;7.47;;;4.22;;
35907;SDS011;22003;50.320;8.054;2023-04-10T09:54:50;5.82;;;4.13;;
35907;SDS011;22003;50.320;8.054;2023-04-10T09:57:17;5.72;;;3.83;;
35907;SDS011;22003;50.320;8.054;2023-04-10T09:59:47;6.90;;;4.55;;
35907;SDS011;22003;50.320;8.054;2023-04-10T10:02:18;7.55;;;4.88;;
35907;SDS011;22003;50.320;8.054;2023-04-10T10:04:44;6.70;;;4.70;;
35907;SDS011;22003;50.320;8.054;2023-04-10T10:07:12;6.97;;;4.73;;
35907;SDS011;22003;50.320;8.054;2023-04-10T10:09:38;7.90;;;5.43;;
35907;SDS011;22003;50.320;8.054;2023-04-10T10:12:05;6.63;;;5.47;;
35907;SDS011;22003;50.320;8.054;2023-04-10T10:14:33;8.07;;;5.60;;
35907;SDS011;22003;50.320;8.054;2023-04-10T10:17:04;5.95;;;4.38;;
35907;SDS011;22003;50.320;8.054;2023-04-10T10:19:43;7.43;;;5.68;;
35907;SDS011;22003;50.320;8.054;2023-04-10T10:22:16;6.22;;;4.60;;
35907;SDS011;22003;50.320;8.054;2023-04-10T10:24:43;6.22;;;4.30;;
35907;SDS011;22003;50.320;8.054;2023-04-10T10:27:10;7.00;;;4.68;;
35907;SDS011;22003;50.320;8.054;2023-04-10T10:29:38;6.50;;;4.05;;
35907;SDS011;22003;50.320;8.054;2023-04-10T10:32:05;6.60;;;4.50;;
35907;SDS011;22003;50.320;8.054;2023-04-10T10:34:30;6.50;;;4.47;;
35907;SDS011;22003;50.320;8.054;2023-04-10T10:36:57;6.07;;;4.22;;
35907;SDS011;22003;50.320;8.054;2023-04-10T10:42:20;6.50;;;4.85;;
35907;SDS011;22003;50.320;8.054;2023-04-10T10:47:45;6.22;;;4.30;;
35907;SDS011;22003;50.320;8.054;2023-04-10T10:50:14;6.57;;;3.92;;
35907;SDS011;22003;50.320;8.054;2023-04-10T10:52:43;4.70;;;3.90;;
35907;SDS011;22003;50.320;8.054;2023-04-10T10:58:06;5.25;;;3.83;;
35907;SDS011;22003;50.320;8.054;2023-04-10T11:05:48;4.97;;;3.70;;
35907;SDS011;22003;50.320;8.054;2023-04-10T11:11:08;3.67;;;3.17;;
35907;SDS011;22003;50.320;8.054;2023-04-10T11:13:39;5.38;;;3.55;;
35907;SDS011;22003;50.320;8.054;2023-04-10T11:16:06;5.03;;;3.60;;
35907;SDS011;22003;50.320;8.054;2023-04-10T11:21:09;4.65;;;3.58;;
35907;SDS011;22003;50.320;8.054;2023-04-10T11:23:35;5.28;;;3.55;;
35907;SDS011;22003;50.320;8.054;2023-04-10T11:26:02;7.22;;;3.92;;
35907;SDS011;22003;50.320;8.054;2023-04-10T11:33:46;6.57;;;3.83;;
35907;SDS011;22003;50.320;8.054;2023-04-10T11:36:42;5.45;;;3.63;;
35907;SDS011;22003;50.320;8.054;2023-04-10T11:39:09;4.10;;;3.03;;
35907;SDS011;22003;50.320;8.054;2023-04-10T11:41:37;5.20;;;3.58;;
35907;SDS011;22003;50.320;8.054;2023-04-10T11:44:08;5.38;;;4.07;;
35907;SDS011;22003;50.320;8.054;2023-04-10T11:46:35;4.13;;;3.35;;
35907;SDS011;22003;50.320;8.054;2023-04-10T11:49:02;5.47;;;3.65;;
35907;SDS011;22003;50.320;8.054;2023-04-10T11:51:29;4.93;;;3.60;;
35907;SDS011;22003;50.320;8.054;2023-04-10T11:56:42;4.32;;;3.55;;
35907;SDS011;22003;50.320;8.054;2023-04-10T11:59:09;5.53;;;4.00;;
35907;SDS011;22003;50.320;8.054;2023-04-10T12:01:38;7.57;;;3.53;;
35907;SDS011;22003;50.320;8.054;2023-04-10T12:04:11;4.97;;;3.90;;
35907;SDS011;22003;50.320;8.054;2023-04-10T12:06:38;6.28;;;4.10;;
35907;SDS011;22003;50.320;8.054;2023-04-10T12:09:11;5.20;;;3.92;;
35907;SDS011;22003;50.320;8.054;2023-04-10T12:11:38;3.85;;;3.10;;
35907;SDS011;22003;50.320;8.054;2023-04-10T12:14:03;4.47;;;3.55;;
35907;SDS011;22003;50.320;8.054;2023-04-10T12:16:28;4.80;;;3.40;;
35907;SDS011;22003;50.320;8.054;2023-04-10T12:18:56;5.13;;;3.63;;
35907;SDS011;22003;50.320;8.054;2023-04-10T12:21:21;3.58;;;2.85;;
35907;SDS011;22003;50.320;8.054;2023-04-10T12:23:47;4.55;;;3.20;;
35907;SDS011;22003;50.320;8.054;2023-04-10T12:28:43;4.28;;;3.15;;
35907;SDS011;22003;50.320;8.054;2023-04-10T12:31:15;4.57;;;3.33;;
35907;SDS011;22003;50.320;8.054;2023-04-10T12:33:43;4.75;;;3.30;;
35907;SDS011;22003;50.320;8.054;2023-04-10T12:36:28;4.30;;;3.28;;
35907;SDS011;22003;50.320;8.054;2023-04-10T12:38:55;4.00;;;2.80;;
35907;SDS011;22003;50.320;8.054;2023-04-10T12:41:21;3.47;;;2.60;;
35907;SDS011;22003;50.320;8.054;2023-04-10T12:43:48;4.65;;;2.70;;
35907;SDS011;22003;50.320;8.054;2023-04-10T12:46:27;4.60;;;2.72;;
35907;SDS011;22003;50.320;8.054;2023-04-10T12:48:56;4.15;;;2.75;;
35907;SDS011;22003;50.320;8.054;2023-04-10T12:54:29;3.90;;;2.40;;
35907;SDS011;22003;50.320;8.054;2023-04-10T12:56:57;3.20;;;2.72;;
35907;SDS011;22003;50.320;8.054;2023-04-10T12:59:23;5.82;;;3.22;;
35907;SDS011;22003;50.320;8.054;2023-04-10T13:01:49;4.40;;;3.42;;
35907;SDS011;22003;50.320;8.054;2023-04-10T13:04:14;3.50;;;2.67;;
35907;SDS011;22003;50.320;8.054;2023-04-10T13:06:46;3.97;;;2.92;;
35907;SDS011;22003;50.320;8.054;2023-04-10T13:09:13;5.30;;;3.47;;
35907;SDS011;22003;50.320;8.054;2023-04-10T13:11:39;4.90;;;2.90;;
35907;SDS011;22003;50.320;8.054;2023-04-10T13:14:05;4.43;;;3.33;;
35907;SDS011;22003;50.320;8.054;2023-04-10T13:16:30;4.57;;;3.30;;
35907;SDS011;22003;50.320;8.054;2023-04-10T13:18:55;4.75;;;3.22;;
35907;SDS011;22003;50.320;8.054;2023-04-10T13:21:21;5.10;;;3.88;;
35907;SDS011;22003;50.320;8.054;2023-04-10T13:23:51;5.05;;;3.35;;
35907;SDS011;22003;50.320;8.054;2023-04-10T13:26:16;4.18;;;3.30;;
35907;SDS011;22003;50.320;8.054;2023-04-10T13:28:41;5.28;;;3.63;;
35907;SDS011;22003;50.320;8.054;2023-04-10T13:31:07;4.60;;;3.50;;
35907;SDS011;22003;50.320;8.054;2023-04-10T13:33:32;5.43;;;3.85;;
35907;SDS011;22003;50.320;8.054;2023-04-10T13:35:57;5.55;;;3.92;;
35907;SDS011;22003;50.320;8.054;2023-04-10T13:38:23;4.22;;;3.35;;
35907;SDS011;22003;50.320;8.054;2023-04-10T13:40:48;5.25;;;3.25;;
35907;SDS011;22003;50.320;8.054;2023-04-10T13:43:13;4.45;;;2.92;;
35907;SDS011;22003;50.320;8.054;2023-04-10T13:45:38;4.78;;;3.00;;
35907;SDS011;22003;50.320;8.054;2023-04-10T13:48:04;3.95;;;2.92;;
35907;SDS011;22003;50.320;8.054;2023-04-10T13:50:31;4.57;;;3.22;;
35907;SDS011;22003;50.320;8.054;2023-04-10T13:52:59;3.67;;;2.65;;
35907;SDS011;22003;50.320;8.054;2023-04-10T13:55:24;5.85;;;3.30;;
35907;SDS011;22003;50.320;8.054;2023-04-10T13:57:50;5.63;;;3.20;;
35907;SDS011;22003;50.320;8.054;2023-04-10T14:00:15;4.20;;;3.13;;
35907;SDS011;22003;50.320;8.054;2023-04-10T14:02:41;4.13;;;3.08;;
35907;SDS011;22003;50.320;8.054;2023-04-10T14:05:06;6.53;;;3.28;;
35907;SDS011;22003;50.320;8.054;2023-04-10T14:07:32;7.38;;;3.25;;
35907;SDS011;22003;50.320;8.054;2023-04-10T14:09:58;4.53;;;3.20;;
35907;SDS011;22003;50.320;8.054;2023-04-10T14:12:24;4.70;;;3.22;;
35907;SDS011;22003;50.320;8.054;2023-04-10T14:14:49;3.25;;;2.78;;
35907;SDS011;22003;50.320;8.054;2023-04-10T14:17:14;4.35;;;3.03;;
35907;SDS011;22003;50.320;8.054;2023-04-10T14:19:40;3.08;;;2.78;;
35907;SDS011;22003;50.320;8.054;2023-04-10T14:22:05;3.45;;;2.75;;
35907;SDS011;22003;50.320;8.054;2023-04-10T14:24:31;2.60;;;2.40;;
35907;SDS011;22003;50.320;8.054;2023-04-10T14:26:56;3.97;;;2.65;;
35907;SDS011;22003;50.320;8.054;2023-04-10T14:29:22;4.97;;;2.90;;
35907;SDS011;22003;50.320;8.054;2023-04-10T14:31:48;3.97;;;2.53;;
35907;SDS011;22003;50.320;8.054;2023-04-10T14:34:15;3.13;;;2.63;;
35907;SDS011;22003;50.320;8.054;2023-04-10T14:36:41;3.53;;;2.63;;
35907;SDS011;22003;50.320;8.054;2023-04-10T14:39:06;2.80;;;2.40;;
35907;SDS011;22003;50.320;8.054;2023-04-10T14:41:31;4.93;;;2.85;;
35907;SDS011;22003;50.320;8.054;2023-04-10T14:43:56;2.95;;;2.40;;
35907;SDS011;22003;50.320;8.054;2023-04-10T14:46:22;3.53;;;2.40;;
35907;SDS011;22003;50.320;8.054;2023-04-10T14:48:49;3.45;;;2.45;;
35907;SDS011;22003;50.320;8.054;2023-04-10T14:51:14;3.78;;;2.72;;
35907;SDS011;22003;50.320;8.054;2023-04-10T14:53:39;3.05;;;2.38;;
35907;SDS011;22003;50.320;8.054;2023-04-10T14:56:09;4.85;;;2.67;;
35907;SDS011;22003;50.320;8.054;2023-04-10T14:58:38;4.15;;;2.70;;
35907;SDS011;22003;50.320;8.054;2023-04-10T15:01:07;7.72;;;5.78;;
35907;SDS011;22003;50.320;8.054;2023-04-10T15:03:33;4.35;;;3.83;;
35907;SDS011;22003;50.320;8.054;2023-04-10T15:05:59;4.18;;;3.35;;
35907;SDS011;22003;50.320;8.054;2023-04-10T15:08:25;3.80;;;2.17;;
35907;SDS011;22003;50.320;8.054;2023-04-10T15:10:50;3.90;;;2.22;;
35907;SDS011;22003;50.320;8.054;2023-04-10T15:13:16;3.78;;;2.20;;
35907;SDS011;22003;50.320;8.054;2023-04-10T15:15:43;3.17;;;2.22;;
35907;SDS011;22003;50.320;8.054;2023-04-10T15:18:08;2.63;;;2.40;;
35907;SDS011;22003;50.320;8.054;2023-04-10T15:20:34;2.42;;;2.10;;
35907;SDS011;22003;50.320;8.054;2023-04-10T15:22:59;3.78;;;2.33;;
35907;SDS011;22003;50.320;8.054;2023-04-10T15:25:26;3.60;;;2.17;;
35907;SDS011;22003;50.320;8.054;2023-04-10T15:27:53;2.85;;;2.22;;
35907;SDS011;22003;50.320;8.054;2023-04-10T15:32:44;2.60;;;2.05;;
35907;SDS011;22003;50.320;8.054;2023-04-10T15:35:09;2.72;;;1.98;;
35907;SDS011;22003;50.320;8.054;2023-04-10T15:37:34;2.75;;;1.90;;
35907;SDS011;22003;50.320;8.054;2023-04-10T15:40:01;2.90;;;2.20;;
35907;SDS011;22003;50.320;8.054;2023-04-10T15:44:53;2.43;;;1.60;;
35907;SDS011;22003;50.320;8.054;2023-04-10T15:47:18;2.40;;;1.77;;
35907;SDS011;22003;50.320;8.054;2023-04-10T15:49:44;2.40;;;2.00;;
35907;SDS011;22003;50.320;8.054;2023-04-10T15:52:09;2.90;;;2.20;;
35907;SDS011;22003;50.320;8.054;2023-04-10T15:54:34;2.38;;;2.15;;
35907;SDS011;22003;50.320;8.054;2023-04-10T15:57:02;2.55;;;1.88;;
35907;SDS011;22003;50.320;8.054;2023-04-10T15:59:27;2.67;;;2.15;;
35907;SDS011;22003;50.320;8.054;2023-04-10T16:01:52;3.15;;;2.30;;
35907;SDS011;22003;50.320;8.054;2023-04-10T16:04:18;2.97;;;2.25;;
35907;SDS011;22003;50.320;8.054;2023-04-10T16:06:43;3.10;;;2.20;;
35907;SDS011;22003;50.320;8.054;2023-04-10T16:09:08;2.83;;;2.25;;
35907;SDS011;22003;50.320;8.054;2023-04-10T16:11:33;3.40;;;2.28;;
35907;SDS011;22003;50.320;8.054;2023-04-10T16:13:59;3.78;;;3.22;;
35907;SDS011;22003;50.320;8.054;2023-04-10T16:16:24;3.22;;;2.50;;
35907;SDS011;22003;50.320;8.054;2023-04-10T16:18:50;2.88;;;2.15;;
35907;SDS011;22003;50.320;8.054;2023-04-10T16:21:18;4.53;;;3.17;;
35907;SDS011;22003;50.320;8.054;2023-04-10T16:23:45;3.95;;;2.45;;
35907;SDS011;22003;50.320;8.054;2023-04-10T16:26:10;5.05;;;2.75;;
35907;SDS011;22003;50.320;8.054;2023-04-10T16:28:35;3.00;;;2.00;;
35907;SDS011;22003;50.320;8.054;2023-04-10T16:31:01;3.78;;;2.38;;
35907;SDS011;22003;50.320;8.054;2023-04-10T16:33:26;3.97;;;2.00;;
35907;SDS011;22003;50.320;8.054;2023-04-10T16:35:53;3.35;;;1.75;;
35907;SDS011;22003;50.320;8.054;2023-04-10T16:38:19;3.03;;;2.03;;
35907;SDS011;22003;50.320;8.054;2023-04-10T16:40:45;2.90;;;1.95;;
35907;SDS011;22003;50.320;8.054;2023-04-10T16:43:10;2.60;;;2.25;;
35907;SDS011;22003;50.320;8.054;2023-04-10T16:45:36;2.83;;;2.08;;
35907;SDS011;22003;50.320;8.054;2023-04-10T16:48:02;2.28;;;1.88;;
35907;SDS011;22003;50.320;8.054;2023-04-10T16:50:27;2.75;;;2.10;;
35907;SDS011;22003;50.320;8.054;2023-04-10T16:52:52;3.13;;;2.10;;
35907;SDS011;22003;50.320;8.054;2023-04-10T16:55:17;4.93;;;2.15;;
35907;SDS011;22003;50.320;8.054;2023-04-10T16:57:43;3.63;;;2.33;;
35907;SDS011;22003;50.320;8.054;2023-04-10T17:00:08;3.72;;;2.17;;
35907;SDS011;22003;50.320;8.054;2023-04-10T17:02:35;4.25;;;3.00;;
35907;SDS011;22003;50.320;8.054;2023-04-10T17:05:00;8.82;;;3.20;;
35907;SDS011;22003;50.320;8.054;2023-04-10T17:07:25;2.95;;;2.35;;
35907;SDS011;22003;50.320;8.054;2023-04-10T17:09:50;4.15;;;2.10;;
35907;SDS011;22003;50.320;8.054;2023-04-10T17:12:16;4.68;;;2.80;;
35907;SDS011;22003;50.320;8.054;2023-04-10T17:14:41;3.42;;;2.25;;
35907;SDS011;22003;50.320;8.054;2023-04-10T17:17:06;3.75;;;2.45;;
35907;SDS011;22003;50.320;8.054;2023-04-10T17:19:32;4.53;;;2.90;;
35907;SDS011;22003;50.320;8.054;2023-04-10T17:21:57;6.45;;;3.08;;
35907;SDS011;22003;50.320;8.054;2023-04-10T17:24:22;3.70;;;2.60;;
35907;SDS011;22003;50.320;8.054;2023-04-10T17:26:48;4.45;;;2.72;;
35907;SDS011;22003;50.320;8.054;2023-04-10T17:29:13;3.95;;;2.30;;
35907;SDS011;22003;50.320;8.054;2023-04-10T17:31:38;5.38;;;2.20;;
35907;SDS011;22003;50.320;8.054;2023-04-10T17:34:03;3.13;;;2.20;;
35907;SDS011;22003;50.320;8.054;2023-04-10T17:36:29;2.10;;;1.77;;
35907;SDS011;22003;50.320;8.054;2023-04-10T17:38:56;2.43;;;1.73;;
35907;SDS011;22003;50.320;8.054;2023-04-10T17:41:21;2.15;;;1.73;;
35907;SDS011;22003;50.320;8.054;2023-04-10T17:43:46;2.53;;;1.90;;
35907;SDS011;22003;50.320;8.054;2023-04-10T17:46:12;2.20;;;1.80;;
35907;SDS011;22003;50.320;8.054;2023-04-10T17:48:39;3.07;;;1.97;;
35907;SDS011;22003;50.320;8.054;2023-04-10T17:51:05;2.70;;;1.98;;
35907;SDS011;22003;50.320;8.054;2023-04-10T17:53:31;3.15;;;2.20;;
35907;SDS011;22003;50.320;8.054;2023-04-10T17:55:56;4.80;;;2.92;;
35907;SDS011;22003;50.320;8.054;2023-04-10T17:58:21;4.68;;;2.10;;
35907;SDS011;22003;50.320;8.054;2023-04-10T18:00:47;3.03;;;2.42;;
35907;SDS011;22003;50.320;8.054;2023-04-10T18:03:12;2.65;;;2.10;;
35907;SDS011;22003;50.320;8.054;2023-04-10T18:05:37;2.78;;;2.08;;
35907;SDS011;22003;50.320;8.054;2023-04-10T18:08:03;3.22;;;2.03;;
35907;SDS011;22003;50.320;8.054;2023-04-10T18:10:29;2.53;;;2.00;;
35907;SDS011;22003;50.320;8.054;2023-04-10T18:12:54;2.70;;;2.22;;
35907;SDS011;22003;50.320;8.054;2023-04-10T18:15:23;2.47;;;2.20;;
35907;SDS011;22003;50.320;8.054;2023-04-10T18:17:49;2.67;;;2.20;;
35907;SDS011;22003;50.320;8.054;2023-04-10T18:20:14;2.38;;;2.03;;
35907;SDS011;22003;50.320;8.054;2023-04-10T18:22:42;2.63;;;2.00;;
35907;SDS011;22003;50.320;8.054;2023-04-10T18:25:07;3.17;;;2.10;;
35907;SDS011;22003;50.320;8.054;2023-04-10T18:27:33;3.47;;;2.25;;
35907;SDS011;22003;50.320;8.054;2023-04-10T18:29:59;2.93;;;2.17;;
35907;SDS011;22003;50.320;8.054;2023-04-10T18:32:25;4.00;;;2.10;;
35907;SDS011;22003;50.320;8.054;2023-04-10T18:34:50;3.45;;;2.40;;
35907;SDS011;22003;50.320;8.054;2023-04-10T18:37:15;4.20;;;2.00;;
35907;SDS011;22003;50.320;8.054;2023-04-10T18:39:40;2.17;;;1.98;;
35907;SDS011;22003;50.320;8.054;2023-04-10T18:42:07;2.15;;;1.90;;
35907;SDS011;22003;50.320;8.054;2023-04-10T18:44:34;3.35;;;2.40;;
35907;SDS011;22003;50.320;8.054;2023-04-10T18:47:00;2.83;;;2.30;;
35907;SDS011;22003;50.320;8.054;2023-04-10T18:49:25;4.28;;;2.63;;
35907;SDS011;22003;50.320;8.054;2023-04-10T18:51:51;3.13;;;2.45;;
35907;SDS011;22003;50.320;8.054;2023-04-10T18:54:16;4.20;;;2.60;;
35907;SDS011;22003;50.320;8.054;2023-04-10T18:56:41;3.90;;;2.70;;
35907;SDS011;22003;50.320;8.054;2023-04-10T18:59:06;3.03;;;2.13;;
35907;SDS011;22003;50.320;8.054;2023-04-10T19:01:32;3.70;;;2.28;;
35907;SDS011;22003;50.320;8.054;2023-04-10T19:03:57;2.75;;;2.25;;
35907;SDS011;22003;50.320;8.054;2023-04-10T19:06:23;3.08;;;2.10;;
35907;SDS011;22003;50.320;8.054;2023-04-10T19:08:48;2.85;;;2.15;;
35907;SDS011;22003;50.320;8.054;2023-04-10T19:11:14;2.22;;;1.88;;
35907;SDS011;22003;50.320;8.054;2023-04-10T19:13:40;2.35;;;2.15;;
35907;SDS011;22003;50.320;8.054;2023-04-10T19:16:05;3.95;;;2.08;;